Time;durP1;ratioP1;P1;durP2;ratioP2;P2;SDS_P1;SDS_P2;PMS_P1;PMS_P2;Temp;Humidity;BMP_temperature;BMP_pressure;BME280_temperature;BME280_humidity;BME280_pressure;Samples;Min_cycle;Max_cycle;Signal;HPM_P1;HPM_P2
2023/12/02 00:00:24;;;;;;;14.10;6.72;;;-1.70;99.90;;;;;;6204311;23;20492;-60
2023/12/02 00:02:49;;;;;;;16.45;7.72;;;-1.70;99.90;;;;;;6205118;23;20031;-60
2023/12/02 00:05:15;;;;;;;15.15;6.93;;;-1.70;99.90;;;;;;6201868;23;20012;-58
2023/12/02 00:07:41;;;;;;;14.60;6.30;;;-1.80;99.90;;;;;;6199621;23;20424;-59
2023/12/02 00:10:07;;;;;;;15.10;6.88;;;-1.90;99.90;;;;;;6200238;23;20493;-59
2023/12/02 00:12:32;;;;;;;15.73;7.25;;;-1.80;99.90;;;;;;6192284;23;20004;-59
2023/12/02 00:14:58;;;;;;;14.48;7.18;;;-1.80;99.90;;;;;;6201943;23;20012;-58
2023/12/02 00:17:24;;;;;;;13.75;6.70;;;-1.80;99.90;;;;;;6205604;23;20005;-59
2023/12/02 00:19:49;;;;;;;14.60;6.40;;;-1.80;99.90;;;;;;6202320;23;20020;-59
2023/12/02 00:22:15;;;;;;;18.35;7.45;;;-1.80;99.90;;;;;;6206823;23;20031;-58
2023/12/02 00:24:40;;;;;;;12.07;6.07;;;-1.90;99.90;;;;;;6204559;23;20432;-58
2023/12/02 00:27:06;;;;;;;13.70;7.03;;;-1.90;99.90;;;;;;6201021;23;20053;-59
2023/12/02 00:29:32;;;;;;;15.80;7.30;;;-1.90;99.90;;;;;;6202318;23;20007;-59
2023/12/02 00:31:57;;;;;;;15.07;7.05;;;-1.90;99.90;;;;;;6206794;23;20072;-58
2023/12/02 00:34:23;;;;;;;14.32;6.75;;;-1.90;99.90;;;;;;6206755;23;20382;-59
2023/12/02 00:36:49;;;;;;;15.38;7.70;;;-1.90;99.90;;;;;;6206288;23;20016;-60
2023/12/02 00:39:15;;;;;;;17.20;7.30;;;-1.90;99.90;;;;;;6207134;23;20336;-60
2023/12/02 00:41:41;;;;;;;19.85;7.20;;;-1.90;99.90;;;;;;6207567;23;20004;-59
2023/12/02 00:44:07;;;;;;;18.15;6.63;;;-1.90;99.90;;;;;;6206587;23;20083;-59
2023/12/02 00:46:32;;;;;;;16.17;8.40;;;-1.90;99.90;;;;;;6184456;22;20055;-60
2023/12/02 00:48:58;;;;;;;14.75;7.47;;;-1.90;99.90;;;;;;6207198;23;20000;-59
2023/12/02 00:51:24;;;;;;;15.20;7.30;;;-1.80;99.90;;;;;;6204654;23;20458;-59
2023/12/02 00:53:49;;;;;;;18.58;8.35;;;-1.80;99.90;;;;;;6206638;23;20001;-58
2023/12/02 00:56:16;;;;;;;16.20;6.40;;;-1.90;99.90;;;;;;6207217;23;20000;-60
2023/12/02 00:58:41;;;;;;;18.83;8.18;;;-1.90;99.90;;;;;;6205022;23;20012;-58
2023/12/02 01:01:08;;;;;;;19.38;8.32;;;-1.80;99.90;;;;;;6206355;23;20317;-59
2023/12/02 01:03:34;;;;;;;15.68;7.65;;;-1.90;99.90;;;;;;6204222;23;20005;-57
2023/12/02 01:05:59;;;;;;;14.40;6.57;;;-1.90;99.90;;;;;;6204028;23;20016;-60
2023/12/02 01:08:25;;;;;;;15.07;7.13;;;-1.90;99.90;;;;;;6206657;23;20005;-59
2023/12/02 01:10:51;;;;;;;16.13;7.18;;;-1.80;99.90;;;;;;6206351;23;20003;-59
2023/12/02 01:13:16;;;;;;;17.25;7.82;;;-1.80;99.90;;;;;;6206660;23;20005;-56
2023/12/02 01:15:42;;;;;;;13.05;6.38;;;-1.80;99.90;;;;;;6206953;23;20046;-59
2023/12/02 01:18:07;;;;;;;13.82;7.05;;;-1.70;99.90;;;;;;6206352;23;20362;-59
2023/12/02 01:20:33;;;;;;;13.75;6.32;;;-1.70;99.90;;;;;;6206326;23;20036;-58
2023/12/02 01:22:59;;;;;;;15.27;6.40;;;-1.80;99.90;;;;;;6204674;23;20075;-59
2023/12/02 01:25:24;;;;;;;16.90;7.07;;;-1.90;99.90;;;;;;6206538;23;20523;-56
2023/12/02 01:27:50;;;;;;;13.70;6.47;;;-1.90;99.90;;;;;;6205792;23;20008;-60
2023/12/02 01:30:16;;;;;;;13.95;6.50;;;-1.90;99.90;;;;;;6205987;23;20005;-56
2023/12/02 01:32:41;;;;;;;13.02;6.30;;;-1.90;99.90;;;;;;6205276;23;20005;-59
2023/12/02 01:35:07;;;;;;;13.10;6.43;;;-1.80;99.90;;;;;;6204765;23;20031;-59
2023/12/02 01:37:33;;;;;;;15.75;7.10;;;-1.80;99.90;;;;;;6207477;23;20011;-58
2023/12/02 01:39:59;;;;;;;15.27;6.70;;;-1.90;99.90;;;;;;6205442;23;20043;-59
2023/12/02 01:42:24;;;;;;;14.48;7.15;;;-2.00;99.90;;;;;;6205827;23;20028;-59
2023/12/02 01:44:50;;;;;;;15.55;7.20;;;-2.00;99.90;;;;;;6178369;23;20004;-59
2023/12/02 01:47:15;;;;;;;13.13;6.28;;;-1.90;99.90;;;;;;6223688;23;19997;-59
2023/12/02 01:49:43;;;;;;;12.15;6.07;;;-1.90;99.90;;;;;;6223265;23;20011;-59
2023/12/02 01:52:10;;;;;;;14.70;6.65;;;-1.90;99.90;;;;;;6220926;23;20012;-59
2023/12/02 01:54:36;;;;;;;10.70;5.43;;;-1.90;99.90;;;;;;6206601;23;20013;-59
2023/12/02 01:57:05;;;;;;;13.68;6.55;;;-1.80;99.90;;;;;;6205052;23;20001;-58
2023/12/02 01:59:31;;;;;;;11.25;5.88;;;-1.80;99.90;;;;;;6204551;22;20184;-58
2023/12/02 02:01:56;;;;;;;12.38;5.68;;;-1.90;99.90;;;;;;6206035;23;20341;-55
2023/12/02 02:04:23;;;;;;;13.55;5.07;;;-1.80;99.90;;;;;;6206088;23;20012;-59
2023/12/02 02:06:49;;;;;;;11.70;5.88;;;-1.90;99.90;;;;;;6206192;23;19997;-58
2023/12/02 02:09:15;;;;;;;13.93;5.55;;;-2.00;99.90;;;;;;6206308;22;20051;-59
2023/12/02 02:11:41;;;;;;;9.65;5.38;;;-2.00;99.90;;;;;;6206373;23;20432;-58
2023/12/02 02:14:06;;;;;;;11.30;5.53;;;-2.00;99.90;;;;;;6206330;23;20057;-58
2023/12/02 02:16:32;;;;;;;12.27;5.95;;;-2.00;99.90;;;;;;6206990;23;20001;-56
2023/12/02 02:18:58;;;;;;;10.23;5.10;;;-2.10;99.90;;;;;;6205966;23;20001;-58
2023/12/02 02:21:23;;;;;;;11.60;5.70;;;-2.10;99.90;;;;;;6206365;23;20003;-57
2023/12/02 02:23:50;;;;;;;10.07;4.82;;;-2.10;99.90;;;;;;6206241;23;20021;-58
2023/12/02 02:26:16;;;;;;;11.82;5.18;;;-2.10;99.90;;;;;;6206456;23;20069;-59
2023/12/02 02:28:41;;;;;;;17.92;4.57;;;-2.10;99.90;;;;;;6205576;23;20490;-57
2023/12/02 02:31:07;;;;;;;9.35;5.22;;;-2.10;99.90;;;;;;6206097;23;20119;-58
2023/12/02 02:33:33;;;;;;;13.18;6.13;;;-2.10;99.90;;;;;;6207257;23;19996;-60
2023/12/02 02:35:58;;;;;;;10.75;5.80;;;-2.10;99.90;;;;;;6206155;23;20048;-59
2023/12/02 02:38:25;;;;;;;18.33;6.10;;;-2.10;99.90;;;;;;6206330;23;20005;-59
2023/12/02 02:40:50;;;;;;;11.63;5.50;;;-2.10;99.90;;;;;;6206061;23;20011;-58
2023/12/02 02:43:16;;;;;;;11.93;5.88;;;-2.10;99.90;;;;;;6204953;23;20012;-58
2023/12/02 02:45:42;;;;;;;8.88;4.97;;;-2.10;99.90;;;;;;6184143;22;20713;-58
2023/12/02 02:48:08;;;;;;;12.32;5.93;;;-2.00;99.90;;;;;;6206897;23;20467;-57
2023/12/02 02:50:34;;;;;;;10.85;5.78;;;-2.00;99.90;;;;;;6206181;23;20004;-58
2023/12/02 02:52:59;;;;;;;12.80;5.78;;;-2.00;99.90;;;;;;6206721;23;20083;-59
2023/12/02 02:55:25;;;;;;;11.02;4.95;;;-1.90;99.90;;;;;;6206483;23;20001;-59
2023/12/02 02:57:50;;;;;;;12.88;6.18;;;-2.00;99.90;;;;;;6205823;23;20085;-59
2023/12/02 03:00:18;;;;;;;12.35;6.72;;;-2.00;99.90;;;;;;6203697;23;20424;-59
2023/12/02 03:02:44;;;;;;;10.93;5.55;;;-1.90;99.90;;;;;;6206270;23;20001;-58
2023/12/02 03:05:09;;;;;;;13.25;6.18;;;-1.90;99.90;;;;;;6206429;23;20447;-60
2023/12/02 03:07:35;;;;;;;13.20;6.20;;;-2.00;99.90;;;;;;6179698;23;20009;-59
2023/12/02 03:10:01;;;;;;;13.00;6.22;;;-2.00;99.90;;;;;;6205920;23;20000;-57
2023/12/02 03:12:27;;;;;;;14.00;6.80;;;-2.10;99.90;;;;;;6205903;23;20035;-60
2023/12/02 03:14:54;;;;;;;14.40;7.50;;;-2.00;99.90;;;;;;6205544;23;20053;-59
2023/12/02 03:17:20;;;;;;;10.85;5.57;;;-2.00;99.90;;;;;;6206200;23;20476;-58
2023/12/02 03:19:49;;;;;;;13.07;6.40;;;-1.90;99.90;;;;;;6205661;23;20005;-59
2023/12/02 03:22:14;;;;;;;12.55;6.55;;;-1.90;99.90;;;;;;6206710;23;20131;-59
2023/12/02 03:24:40;;;;;;;10.55;5.18;;;-2.00;99.90;;;;;;6205468;23;20009;-58
2023/12/02 03:27:06;;;;;;;19.33;7.22;;;-2.00;99.90;;;;;;6205722;23;20579;-58
2023/12/02 03:29:32;;;;;;;13.88;6.60;;;-2.10;99.90;;;;;;6205681;23;20053;-59
2023/12/02 03:31:58;;;;;;;13.02;6.28;;;-2.10;99.90;;;;;;6206531;23;20022;-58
2023/12/02 03:34:23;;;;;;;13.52;6.40;;;-2.10;99.90;;;;;;6205838;23;20000;-59
2023/12/02 03:36:49;;;;;;;11.15;5.60;;;-2.10;99.90;;;;;;6204366;23;20012;-57
2023/12/02 03:39:15;;;;;;;14.68;5.80;;;-2.10;99.90;;;;;;6205926;23;20001;-55
2023/12/02 03:41:42;;;;;;;11.00;5.50;;;-2.10;99.90;;;;;;6206577;22;19997;-60
2023/12/02 03:44:08;;;;;;;15.25;6.60;;;-2.10;99.90;;;;;;6203897;23;20015;-59
2023/12/02 03:46:35;;;;;;;14.75;6.68;;;-2.10;99.90;;;;;;6182814;22;20009;-60
2023/12/02 03:49:01;;;;;;;15.95;5.93;;;-2.10;99.90;;;;;;6206537;22;20541;-59
2023/12/02 03:51:27;;;;;;;8.95;5.32;;;-2.00;99.90;;;;;;6204675;23;20013;-59
2023/12/02 03:53:52;;;;;;;10.65;5.28;;;-2.00;99.90;;;;;;6206280;23;20329;-59
2023/12/02 03:56:18;;;;;;;12.05;5.40;;;-1.90;99.90;;;;;;6206521;23;20009;-59
2023/12/02 03:58:45;;;;;;;13.48;5.35;;;-2.00;99.90;;;;;;6180364;23;20004;-58
2023/12/02 04:01:11;;;;;;;8.65;5.38;;;-1.90;99.90;;;;;;6185833;22;20363;-59
2023/12/02 04:03:37;;;;;;;9.43;5.55;;;-1.90;99.90;;;;;;6177137;23;20064;-58
2023/12/02 04:06:03;;;;;;;11.50;5.60;;;-2.00;99.90;;;;;;6177189;23;20001;-61
2023/12/02 04:08:29;;;;;;;13.35;6.90;;;-2.00;99.90;;;;;;6178098;23;20001;-59
2023/12/02 04:10:55;;;;;;;10.30;5.45;;;-2.00;99.90;;;;;;6177436;23;20002;-62
2023/12/02 04:13:20;;;;;;;13.80;5.50;;;-2.00;99.90;;;;;;6177417;23;20021;-57
2023/12/02 04:15:46;;;;;;;11.05;5.55;;;-2.00;99.90;;;;;;6177295;23;20016;-59
2023/12/02 04:18:12;;;;;;;14.23;5.35;;;-2.00;99.90;;;;;;6206864;23;20085;-58
2023/12/02 04:20:38;;;;;;;12.45;6.35;;;-2.00;99.90;;;;;;6205748;23;20000;-54
2023/12/02 04:23:04;;;;;;;12.43;6.45;;;-1.90;99.90;;;;;;6207633;23;20445;-60
2023/12/02 04:25:30;;;;;;;13.35;6.13;;;-2.00;99.90;;;;;;6181125;22;20077;-59
2023/12/02 04:27:56;;;;;;;11.20;5.40;;;-2.00;99.90;;;;;;6207769;23;20001;-56
2023/12/02 04:30:21;;;;;;;9.80;5.65;;;-2.00;99.90;;;;;;6207505;23;20011;-60
2023/12/02 04:32:47;;;;;;;13.10;6.07;;;-2.00;99.90;;;;;;6180667;22;20040;-61
2023/12/02 04:35:13;;;;;;;14.77;6.60;;;-2.00;99.90;;;;;;6207138;23;20032;-57
2023/12/02 04:37:38;;;;;;;11.65;5.85;;;-1.90;99.90;;;;;;6207472;23;20447;-57
2023/12/02 04:40:09;;;;;;;10.68;6.10;;;-1.90;99.90;;;;;;6207565;23;20007;-57
2023/12/02 04:42:35;;;;;;;12.80;5.32;;;-1.90;99.90;;;;;;6208027;23;20100;-56
2023/12/02 04:45:01;;;;;;;9.38;5.75;;;-1.80;99.90;;;;;;6208036;23;20344;-55
2023/12/02 04:47:26;;;;;;;10.80;5.82;;;-1.80;99.90;;;;;;6203962;22;20005;-58
2023/12/02 04:49:52;;;;;;;9.88;5.53;;;-1.80;99.90;;;;;;6207434;23;20005;-58
2023/12/02 04:52:18;;;;;;;14.68;6.43;;;-1.80;99.90;;;;;;6208031;23;20004;-55
2023/12/02 04:54:43;;;;;;;12.60;6.65;;;-1.70;99.90;;;;;;6207864;23;20369;-56
2023/12/02 04:57:09;;;;;;;10.07;5.65;;;-1.80;99.90;;;;;;6207847;23;20314;-57
2023/12/02 04:59:35;;;;;;;12.88;6.43;;;-1.70;99.90;;;;;;6207290;23;20056;-61
2023/12/02 05:02:00;;;;;;;11.38;6.18;;;-1.80;99.90;;;;;;6207196;23;20440;-57
2023/12/02 05:04:26;;;;;;;10.70;6.30;;;-1.80;99.90;;;;;;6207204;23;20013;-61
2023/12/02 05:06:52;;;;;;;14.90;6.82;;;-1.80;99.90;;;;;;6207759;23;20001;-58
2023/12/02 05:09:18;;;;;;;17.10;9.73;;;-1.80;99.90;;;;;;6207832;23;20004;-57
2023/12/02 05:11:44;;;;;;;14.50;7.47;;;-1.70;99.90;;;;;;6207943;23;20008;-59
2023/12/02 05:14:10;;;;;;;14.48;6.72;;;-1.70;99.90;;;;;;6207414;23;20353;-56
2023/12/02 05:16:35;;;;;;;11.50;5.90;;;-1.70;99.90;;;;;;6206789;23;20015;-59
2023/12/02 05:19:01;;;;;;;12.35;6.22;;;-1.70;99.90;;;;;;6207788;23;20004;-57
2023/12/02 05:21:26;;;;;;;11.52;5.50;;;-1.70;99.90;;;;;;6207736;23;20013;-57
2023/12/02 05:23:52;;;;;;;11.60;6.28;;;-1.70;99.90;;;;;;6207824;23;20516;-59
2023/12/02 05:26:17;;;;;;;12.23;6.70;;;-1.70;99.90;;;;;;6207677;23;20005;-58
2023/12/02 05:28:43;;;;;;;12.30;6.85;;;-1.70;99.90;;;;;;6207111;23;20071;-57
2023/12/02 05:31:09;;;;;;;11.93;6.32;;;-1.70;99.90;;;;;;6207608;23;20025;-58
2023/12/02 05:33:34;;;;;;;12.02;6.07;;;-1.70;99.90;;;;;;6206843;23;20041;-58
2023/12/02 05:36:00;;;;;;;12.23;6.65;;;-1.70;99.90;;;;;;6207851;23;20349;-58
2023/12/02 05:38:25;;;;;;;14.77;6.82;;;-1.70;99.90;;;;;;6207449;23;20009;-57
2023/12/02 05:40:51;;;;;;;13.40;6.85;;;-1.70;99.90;;;;;;6206454;23;20012;-58
2023/12/02 05:43:17;;;;;;;17.80;6.85;;;-1.70;99.90;;;;;;6208636;23;20428;-57
2023/12/02 05:45:42;;;;;;;10.63;6.35;;;-1.60;99.90;;;;;;6207623;23;20008;-58
2023/12/02 05:48:08;;;;;;;12.50;6.38;;;-1.60;99.90;;;;;;6183833;23;20012;-56
2023/12/02 05:50:33;;;;;;;12.88;6.22;;;-1.60;99.90;;;;;;6206639;23;20337;-58
2023/12/02 05:52:59;;;;;;;13.35;7.03;;;-1.60;99.90;;;;;;6206988;23;20046;-57
2023/12/02 05:55:28;;;;;;;15.45;6.53;;;-1.60;99.90;;;;;;6207427;23;20008;-58
2023/12/02 05:57:53;;;;;;;12.57;6.65;;;-1.60;99.90;;;;;;6207230;23;20019;-55
2023/12/02 06:00:19;;;;;;;11.73;5.82;;;-1.60;99.90;;;;;;6206829;23;20012;-59
2023/12/02 06:02:45;;;;;;;12.30;6.80;;;-1.60;99.90;;;;;;6208122;23;20009;-55
2023/12/02 06:05:11;;;;;;;16.58;7.50;;;-1.60;99.90;;;;;;6206494;23;20001;-58
2023/12/02 06:07:37;;;;;;;16.65;7.97;;;-1.60;99.90;;;;;;6206982;23;20459;-61
2023/12/02 06:10:02;;;;;;;14.30;7.10;;;-1.70;99.90;;;;;;6206869;23;19997;-56
2023/12/02 06:12:28;;;;;;;14.55;8.05;;;-1.60;99.90;;;;;;6207465;23;20001;-56
2023/12/02 06:14:54;;;;;;;16.05;7.20;;;-1.50;99.90;;;;;;6207318;23;20005;-59
2023/12/02 06:17:19;;;;;;;13.73;7.20;;;-1.50;99.90;;;;;;6207426;23;20042;-58
2023/12/02 06:19:45;;;;;;;15.38;7.60;;;-1.50;99.90;;;;;;6205989;23;20077;-57
2023/12/02 06:22:10;;;;;;;12.93;7.78;;;-1.40;99.90;;;;;;6206988;23;20004;-59
2023/12/02 06:24:36;;;;;;;11.80;6.70;;;-1.50;99.90;;;;;;6206916;23;20044;-58
2023/12/02 06:27:02;;;;;;;13.20;6.57;;;-1.50;99.90;;;;;;6206804;23;20000;-55
2023/12/02 06:29:28;;;;;;;16.55;7.40;;;-1.50;99.90;;;;;;6207095;23;20036;-60
2023/12/02 06:31:54;;;;;;;13.60;7.55;;;-1.50;99.90;;;;;;6207185;23;19997;-56
2023/12/02 06:34:19;;;;;;;15.20;7.03;;;-1.40;99.90;;;;;;6206677;23;19997;-56
2023/12/02 06:36:45;;;;;;;11.57;6.10;;;-1.50;99.90;;;;;;6207064;23;20443;-60
2023/12/02 06:39:15;;;;;;;18.42;8.05;;;-1.60;99.90;;;;;;6207288;23;20388;-60
2023/12/02 06:41:41;;;;;;;15.85;6.75;;;-1.50;99.90;;;;;;6206592;23;20003;-60
2023/12/02 06:44:07;;;;;;;16.48;7.20;;;-1.60;99.90;;;;;;6207189;22;20078;-60
2023/12/02 06:46:33;;;;;;;15.25;6.90;;;-1.60;99.90;;;;;;6183097;23;20042;-60
2023/12/02 06:48:59;;;;;;;13.43;7.32;;;-1.60;99.90;;;;;;6207124;23;20032;-60
2023/12/02 06:51:28;;;;;;;13.77;6.35;;;-1.50;99.90;;;;;;6206105;23;20069;-58
2023/12/02 06:53:54;;;;;;;16.30;7.15;;;-1.50;99.90;;;;;;6206928;23;20000;-61
2023/12/02 06:56:21;;;;;;;14.52;7.60;;;-1.50;99.90;;;;;;6207260;23;20032;-58
2023/12/02 06:58:49;;;;;;;15.20;7.90;;;-1.50;99.90;;;;;;6206097;23;20008;-57
2023/12/02 07:01:28;;;;;;;14.45;7.13;;;-1.50;99.90;;;;;;6206692;23;20329;-56
2023/12/02 07:03:55;;;;;;;14.95;7.55;;;-1.50;99.90;;;;;;6206276;23;20079;-61
2023/12/02 07:06:21;;;;;;;19.95;7.75;;;-1.50;99.90;;;;;;6207095;23;20000;-57
2023/12/02 07:08:47;;;;;;;17.42;8.35;;;-1.40;99.90;;;;;;6206742;23;20001;-57
2023/12/02 07:11:13;;;;;;;15.57;7.53;;;-1.40;99.90;;;;;;6206214;23;20013;-60
2023/12/02 07:13:40;;;;;;;16.50;8.27;;;-1.40;99.90;;;;;;6206558;23;20020;-62
2023/12/02 07:16:06;;;;;;;15.32;7.75;;;-1.40;99.90;;;;;;6206856;23;20420;-56
2023/12/02 07:18:31;;;;;;;21.65;9.20;;;-1.50;99.90;;;;;;6206379;23;20008;-59
2023/12/02 07:20:57;;;;;;;21.33;10.15;;;-1.50;99.90;;;;;;6206047;23;20008;-56
2023/12/02 07:23:25;;;;;;;22.25;9.43;;;-1.50;99.90;;;;;;6207363;23;20008;-60
2023/12/02 07:25:51;;;;;;;20.40;9.60;;;-1.60;99.90;;;;;;6206872;23;20450;-56
2023/12/02 07:28:17;;;;;;;24.25;8.85;;;-1.50;99.90;;;;;;6207474;23;20028;-59
2023/12/02 07:30:43;;;;;;;24.05;10.85;;;-1.50;99.90;;;;;;6206382;23;20032;-55
2023/12/02 07:33:09;;;;;;;23.17;10.77;;;-1.50;99.90;;;;;;6206981;22;20424;-61
2023/12/02 07:35:34;;;;;;;28.20;12.82;;;-1.50;99.90;;;;;;6207684;23;20013;-57
2023/12/02 07:38:00;;;;;;;33.38;13.60;;;-1.50;99.90;;;;;;6207684;23;20001;-59
2023/12/02 07:40:26;;;;;;;24.05;10.90;;;-1.50;99.90;;;;;;6207201;23;20650;-56
2023/12/02 07:42:51;;;;;;;44.80;18.30;;;-1.50;99.90;;;;;;6207495;23;20005;-59
2023/12/02 07:45:17;;;;;;;28.80;11.98;;;-1.50;99.90;;;;;;6207923;23;20079;-57
2023/12/02 07:47:42;;;;;;;25.60;11.80;;;-1.50;99.90;;;;;;6185347;22;20027;-56
2023/12/02 07:50:09;;;;;;;30.92;11.88;;;-1.60;99.90;;;;;;6207654;23;20011;-58
2023/12/02 07:52:34;;;;;;;22.95;11.00;;;-1.60;99.90;;;;;;6207296;23;19997;-59
2023/12/02 07:55:00;;;;;;;20.35;9.60;;;-1.60;99.90;;;;;;6208307;23;20081;-59
2023/12/02 07:57:26;;;;;;;20.85;9.20;;;-1.60;99.90;;;;;;6207843;23;20016;-56
2023/12/02 07:59:51;;;;;;;21.23;9.98;;;-1.70;99.90;;;;;;6207321;23;20039;-57
2023/12/02 08:02:17;;;;;;;25.05;10.07;;;-1.70;99.90;;;;;;6207601;23;20012;-59
2023/12/02 08:04:43;;;;;;;20.35;9.25;;;-1.60;99.90;;;;;;6207493;23;20466;-58
2023/12/02 08:07:09;;;;;;;17.08;9.18;;;-1.60;99.90;;;;;;6207547;23;19996;-61
2023/12/02 08:09:35;;;;;;;21.65;9.82;;;-1.60;99.90;;;;;;6208035;23;20004;-58
2023/12/02 08:12:00;;;;;;;23.38;9.23;;;-1.60;99.90;;;;;;6207676;23;20095;-59
2023/12/02 08:14:26;;;;;;;19.45;9.30;;;-1.60;99.90;;;;;;6208404;23;20001;-58
2023/12/02 08:16:51;;;;;;;16.83;8.40;;;-1.60;99.90;;;;;;6208235;23;20064;-61
2023/12/02 08:19:17;;;;;;;20.05;9.43;;;-1.50;99.90;;;;;;6207426;23;20492;-59
2023/12/02 08:21:43;;;;;;;20.13;9.60;;;-1.50;99.90;;;;;;6207719;23;20000;-60
2023/12/02 08:24:09;;;;;;;23.77;11.02;;;-1.50;99.90;;;;;;6207664;23;20516;-56
2023/12/02 08:26:34;;;;;;;22.10;9.95;;;-1.60;99.90;;;;;;6206459;23;20009;-57
2023/12/02 08:29:00;;;;;;;19.45;8.80;;;-1.50;99.90;;;;;;6206980;23;20001;-58
2023/12/02 08:31:26;;;;;;;24.50;10.13;;;-1.40;99.90;;;;;;6206621;23;20065;-59
2023/12/02 08:33:51;;;;;;;26.50;12.13;;;-1.40;99.90;;;;;;6207252;23;20015;-58
2023/12/02 08:36:17;;;;;;;21.08;9.20;;;-1.40;99.90;;;;;;6207173;23;20020;-62
2023/12/02 08:38:42;;;;;;;17.80;8.63;;;-1.40;99.90;;;;;;6207028;23;20008;-56
2023/12/02 08:41:08;;;;;;;19.27;9.00;;;-1.40;99.90;;;;;;6207360;23;20004;-57
2023/12/02 08:43:34;;;;;;;23.10;9.93;;;-1.40;99.90;;;;;;6206143;23;20043;-58
2023/12/02 08:45:59;;;;;;;20.13;8.98;;;-1.40;99.90;;;;;;6206150;23;20008;-56
2023/12/02 08:48:26;;;;;;;22.80;9.52;;;-1.30;99.90;;;;;;6185001;23;20032;-59
2023/12/02 08:50:51;;;;;;;24.20;11.73;;;-1.40;99.90;;;;;;6204940;23;19996;-59
2023/12/02 08:53:17;;;;;;;17.55;8.55;;;-1.40;99.90;;;;;;6206904;23;20057;-60
2023/12/02 08:55:43;;;;;;;17.95;8.50;;;-1.30;99.90;;;;;;6206971;23;20004;-57
2023/12/02 08:58:08;;;;;;;16.80;8.82;;;-1.20;99.90;;;;;;6207018;23;20007;-59
2023/12/02 09:00:34;;;;;;;21.05;8.55;;;-1.30;99.90;;;;;;6206458;23;20088;-54
2023/12/02 09:03:00;;;;;;;19.98;9.63;;;-1.20;99.90;;;;;;6205640;23;20439;-56
2023/12/02 09:05:26;;;;;;;17.05;9.15;;;-1.30;99.90;;;;;;6207093;23;20400;-57
2023/12/02 09:07:52;;;;;;;16.70;7.97;;;-1.40;99.90;;;;;;6206961;23;20009;-59
2023/12/02 09:10:18;;;;;;;15.18;7.07;;;-1.30;99.90;;;;;;6206661;23;20306;-60
2023/12/02 09:12:44;;;;;;;18.40;8.35;;;-1.30;99.90;;;;;;6206536;23;20005;-60
2023/12/02 09:15:16;;;;;;;21.38;9.45;;;-1.20;99.90;;;;;;6207196;23;20049;-58
2023/12/02 09:18:09;;;;;;;18.98;8.63;;;-1.20;99.90;;;;;;6207090;23;20009;-60
2023/12/02 09:20:53;;;;;;;16.08;7.97;;;-1.20;99.90;;;;;;6205807;23;20016;-59
2023/12/02 09:23:20;;;;;;;14.80;7.72;;;-1.10;99.90;;;;;;6206931;22;20053;-57
2023/12/02 09:25:46;;;;;;;18.30;8.23;;;-1.10;99.90;;;;;;6206220;22;20001;-56
2023/12/02 09:28:15;;;;;;;21.48;9.52;;;-1.00;99.90;;;;;;6206237;23;20461;-57
2023/12/02 09:30:58;;;;;;;18.75;8.05;;;-1.00;99.90;;;;;;6179944;22;20004;-61
2023/12/02 09:33:25;;;;;;;18.40;8.13;;;-1.00;99.90;;;;;;6205688;23;20005;-58
2023/12/02 09:35:57;;;;;;;15.20;7.90;;;-1.00;99.90;;;;;;6206734;23;20008;-58
2023/12/02 09:38:23;;;;;;;17.48;8.18;;;-0.90;99.90;;;;;;6205850;23;20004;-58
2023/12/02 09:41:04;;;;;;;16.40;8.15;;;-0.80;99.90;;;;;;6206780;23;20004;-56
2023/12/02 09:44:09;;;;;;;15.90;7.70;;;-0.80;99.90;;;;;;6207771;23;20103;-57
2023/12/02 09:47:03;;;;;;;17.65;7.97;;;-0.80;99.90;;;;;;6185436;23;20066;-58
2023/12/02 09:50:05;;;;;;;15.95;7.63;;;-0.70;99.90;;;;;;6206662;23;20429;-58
2023/12/02 09:52:55;;;;;;;17.20;7.93;;;-0.70;99.90;;;;;;6216681;22;20011;-55
2023/12/02 09:55:43;;;;;;;17.95;8.30;;;-0.70;99.90;;;;;;6207005;23;20004;-58
2023/12/02 09:58:29;;;;;;;17.17;8.55;;;-0.70;99.90;;;;;;6206940;23;20007;-56
2023/12/02 10:01:16;;;;;;;14.85;7.68;;;-0.60;99.90;;;;;;6206336;23;20043;-59
2023/12/02 10:03:45;;;;;;;19.23;8.00;;;-0.50;99.90;;;;;;6206939;23;20001;-59
2023/12/02 10:06:44;;;;;;;14.48;7.88;;;-0.60;99.90;;;;;;6205888;23;20079;-57
2023/12/02 10:09:47;;;;;;;15.88;7.78;;;-0.50;99.90;;;;;;6206384;23;20588;-60
2023/12/02 10:12:24;;;;;;;18.77;7.95;;;-0.50;99.90;;;;;;6206705;23;20008;-57
2023/12/02 10:14:59;;;;;;;17.10;7.80;;;-0.40;99.90;;;;;;6206882;23;20046;-59
2023/12/02 10:17:28;;;;;;;18.50;7.43;;;-0.50;99.90;;;;;;6206422;22;20456;-53
2023/12/02 10:19:58;;;;;;;13.35;7.38;;;-0.30;99.90;;;;;;6206092;23;20212;-55
2023/12/02 10:22:28;;;;;;;16.20;8.07;;;-0.30;99.90;;;;;;6206363;23;20062;-57
2023/12/02 10:25:07;;;;;;;15.10;7.43;;;-0.20;99.90;;;;;;6207115;23;20009;-56
2023/12/02 10:27:38;;;;;;;17.23;7.25;;;-0.20;99.90;;;;;;6206712;23;20388;-55
2023/12/02 10:30:03;;;;;;;12.88;7.10;;;-0.10;99.90;;;;;;6206237;23;20054;-56
2023/12/02 10:32:44;;;;;;;17.77;7.93;;;0.00;99.90;;;;;;6206326;23;20493;-58
2023/12/02 10:35:12;;;;;;;13.85;7.22;;;0.10;99.90;;;;;;6206667;23;20004;-56
2023/12/02 10:37:41;;;;;;;13.35;7.50;;;0.10;99.90;;;;;;6206304;23;20456;-61
2023/12/02 10:40:09;;;;;;;15.65;7.25;;;0.20;99.90;;;;;;6206261;23;20012;-57
2023/12/02 10:42:59;;;;;;;14.35;6.65;;;0.20;99.90;;;;;;6206427;23;20076;-56
2023/12/02 10:45:26;;;;;;;13.13;7.15;;;0.20;99.90;;;;;;6206618;23;20005;-55
2023/12/02 10:47:52;;;;;;;15.52;7.60;;;0.30;99.90;;;;;;6182579;23;20020;-59
2023/12/02 10:50:19;;;;;;;14.85;7.95;;;0.20;99.90;;;;;;6206309;23;20057;-55
2023/12/02 10:53:03;;;;;;;17.52;7.75;;;0.30;99.90;;;;;;6204742;23;20084;-53
2023/12/02 10:55:31;;;;;;;19.25;8.15;;;0.30;99.90;;;;;;6206176;23;20001;-56
2023/12/02 10:57:59;;;;;;;14.13;7.68;;;0.20;99.90;;;;;;6207074;23;20073;-56
2023/12/02 11:00:27;;;;;;;14.38;8.05;;;0.30;99.90;;;;;;6206031;23;20008;-57
2023/12/02 11:03:13;;;;;;;12.98;6.35;;;0.30;99.90;;;;;;6206711;23;20074;-58
2023/12/02 11:06:00;;;;;;;13.75;7.63;;;0.30;99.90;;;;;;6207460;23;20082;-53
2023/12/02 11:08:53;;;;;;;13.98;6.88;;;0.30;99.90;;;;;;6199913;23;20051;-60
2023/12/02 11:11:46;;;;;;;14.55;6.88;;;0.20;99.90;;;;;;6206194;23;20014;-57
2023/12/02 11:14:17;;;;;;;15.50;7.03;;;0.10;99.90;;;;;;6207943;22;20103;-68
2023/12/02 11:16:51;;;;;;;20.10;9.32;;;0.20;99.90;;;;;;6206361;23;20004;-59
2023/12/02 11:19:43;;;;;;;15.38;7.93;;;0.20;99.90;;;;;;6205788;23;20007;-60
2023/12/02 11:22:17;;;;;;;26.98;11.75;;;0.10;99.90;;;;;;6206394;23;20005;-54
2023/12/02 11:25:06;;;;;;;18.27;8.55;;;0.10;99.90;;;;;;6206079;23;20036;-59
2023/12/02 11:27:45;;;;;;;13.90;7.38;;;0.10;99.90;;;;;;6206648;23;19997;-49
2023/12/02 11:30:32;;;;;;;15.70;7.47;;;0.30;99.90;;;;;;6205369;23;20007;-51
2023/12/02 11:33:00;;;;;;;15.15;7.05;;;0.30;99.90;;;;;;6206721;23;20079;-51
2023/12/02 11:35:35;;;;;;;15.30;6.20;;;0.30;99.90;;;;;;6205567;23;20435;-48
2023/12/02 11:38:19;;;;;;;14.13;6.85;;;0.30;99.90;;;;;;6204461;22;20084;-54
2023/12/02 11:40:54;;;;;;;15.70;7.50;;;0.40;99.90;;;;;;6206266;23;20000;-47
2023/12/02 11:43:49;;;;;;;14.52;8.05;;;0.20;99.90;;;;;;6205616;23;20011;-52
2023/12/02 11:46:18;;;;;;;11.90;6.03;;;0.20;99.90;;;;;;6208988;22;20012;-48
2023/12/02 11:49:06;;;;;;;12.10;6.50;;;0.20;99.90;;;;;;6185904;22;20120;-50
2023/12/02 11:52:20;;;;;;;16.88;6.75;;;0.20;99.90;;;;;;6206714;23;19996;-48
2023/12/02 11:55:15;;;;;;;16.67;6.25;;;0.20;99.90;;;;;;6223015;22;20474;-47
2023/12/02 11:58:10;;;;;;;11.48;5.95;;;0.40;99.90;;;;;;6205534;23;20062;-56
2023/12/02 12:01:03;;;;;;;12.88;6.82;;;0.50;99.90;;;;;;6228600;22;20034;-49
2023/12/02 12:03:44;;;;;;;11.80;6.65;;;0.50;99.90;;;;;;6205616;23;20095;-53
2023/12/02 12:06:30;;;;;;;10.25;5.38;;;0.60;99.90;;;;;;6205598;23;20039;-50
2023/12/02 12:09:21;;;;;;;11.70;5.43;;;0.30;99.90;;;;;;6206382;23;20429;-48
2023/12/02 12:11:49;;;;;;;12.23;5.90;;;0.10;99.90;;;;;;6206839;23;20001;-49
2023/12/02 12:14:16;;;;;;;12.43;6.40;;;0.00;99.90;;;;;;6206222;23;20471;-54
2023/12/02 12:16:42;;;;;;;12.05;6.38;;;-0.20;99.90;;;;;;6205586;23;20015;-52
2023/12/02 12:19:07;;;;;;;13.43;5.97;;;-0.20;99.90;;;;;;6206897;23;20643;-52
2023/12/02 12:21:33;;;;;;;14.35;7.40;;;-0.20;99.90;;;;;;6207204;23;20344;-47
2023/12/02 12:23:59;;;;;;;14.23;6.38;;;-0.30;99.90;;;;;;6207182;23;20004;-49
2023/12/02 12:26:24;;;;;;;16.60;8.05;;;-0.20;99.90;;;;;;6206663;23;20031;-50
2023/12/02 12:28:50;;;;;;;15.45;6.82;;;-0.20;99.90;;;;;;6207206;23;20001;-51
2023/12/02 12:31:17;;;;;;;12.55;6.22;;;-0.20;99.90;;;;;;6207349;23;19997;-54
2023/12/02 12:33:47;;;;;;;14.35;6.95;;;-0.10;99.90;;;;;;6207688;23;20005;-51
2023/12/02 12:36:12;;;;;;;47.95;18.13;;;-0.10;99.90;;;;;;6207167;23;20001;-47
2023/12/02 12:38:38;;;;;;;20.50;8.63;;;-0.10;99.90;;;;;;6207288;23;20011;-47
2023/12/02 12:41:07;;;;;;;16.73;8.02;;;0.10;99.90;;;;;;6207602;23;20004;-48
2023/12/02 12:43:36;;;;;;;19.13;8.85;;;0.10;99.90;;;;;;6207671;23;20008;-51
2023/12/02 12:46:02;;;;;;;15.52;7.95;;;0.00;99.90;;;;;;6206061;23;20089;-51